Time;durP1;ratioP1;P1;durP2;ratioP2;P2;SDS_P1;SDS_P2;PMS_P1;PMS_P2;Temp;Humidity;BMP_temperature;BMP_pressure;BME280_temperature;BME280_humidity;BME280_pressure;Samples;Min_cycle;Max_cycle;Signal;HPM_P1;HPM_P2
2023/08/25 00:01:13;;;;;;;4.80;2.90;;;19.60;99.90;;;19.18;100.00;97600.00;5091053;28;20459;-71
2023/08/25 00:03:40;;;;;;;3.33;3.03;;;19.60;99.90;;;19.10;100.00;97601.44;5089479;28;20836;-71
2023/08/25 00:06:07;;;;;;;6.37;3.67;;;19.60;99.90;;;19.16;100.00;97594.81;5090978;28;20816;-69
2023/08/25 00:08:35;;;;;;;4.93;3.50;;;19.60;99.90;;;19.23;100.00;97584.38;5093292;28;20491;-70
2023/08/25 00:11:02;;;;;;;2.87;2.60;;;19.60;99.90;;;19.18;100.00;97576.19;5091021;28;20517;-69
2023/08/25 00:13:31;;;;;;;7.83;2.80;;;19.60;99.90;;;19.14;100.00;97571.56;5092251;28;20458;-70
2023/08/25 00:15:58;;;;;;;3.70;2.93;;;19.60;99.90;;;19.09;100.00;97575.16;5088139;28;20519;-70
2023/08/25 00:18:25;;;;;;;3.67;3.30;;;19.50;99.90;;;19.04;100.00;97576.00;5092316;28;20513;-70
2023/08/25 00:20:52;;;;;;;5.03;3.00;;;19.50;99.90;;;19.11;100.00;97572.94;5092636;28;20496;-71
2023/08/25 00:23:20;;;;;;;3.20;2.90;;;19.50;99.90;;;19.08;100.00;97568.84;5082641;28;20561;-71
2023/08/25 00:25:47;;;;;;;5.20;3.00;;;19.50;99.90;;;19.06;100.00;97576.53;5091281;28;20761;-69
2023/08/25 00:28:14;;;;;;;5.73;2.70;;;19.50;99.90;;;19.07;100.00;97577.34;5092887;28;20874;-71
2023/08/25 00:30:43;;;;;;;5.00;3.00;;;19.50;99.90;;;19.05;100.00;97568.59;5090995;28;20474;-70
2023/08/25 00:33:10;;;;;;;5.90;3.10;;;19.50;99.90;;;18.98;100.00;97564.22;5091850;28;20512;-71
2023/08/25 00:35:37;;;;;;;4.27;2.90;;;19.50;99.90;;;19.09;100.00;97566.94;5092256;28;20490;-71
2023/08/25 00:38:04;;;;;;;4.83;2.80;;;19.50;99.90;;;19.12;100.00;97571.84;5089802;28;20988;-70
2023/08/25 00:40:36;;;;;;;7.90;3.13;;;19.50;99.90;;;19.00;100.00;97568.63;5084858;28;20447;-71
2023/08/25 00:43:04;;;;;;;2.63;2.43;;;19.50;99.90;;;19.06;100.00;97564.78;5082055;28;20460;-72
2023/08/25 00:45:36;;;;;;;5.13;3.60;;;19.50;99.90;;;19.05;100.00;97571.34;5090983;28;20474;-70
2023/08/25 00:48:07;;;;;;;4.20;2.80;;;19.50;99.90;;;19.03;100.00;97574.34;5090886;28;20524;-70
2023/08/25 00:50:35;;;;;;;5.17;4.00;;;19.50;99.90;;;19.03;100.00;97579.84;5091949;28;20464;-70
2023/08/25 00:53:03;;;;;;;2.70;2.50;;;19.40;99.90;;;19.04;100.00;97570.50;5091240;28;20459;-70
2023/08/25 00:55:31;;;;;;;3.70;3.40;;;19.40;99.90;;;18.96;100.00;97574.63;5073826;28;20449;-71
2023/08/25 00:57:59;;;;;;;3.63;3.30;;;19.40;99.90;;;19.02;100.00;97569.97;5075941;28;20832;-70
2023/08/25 01:00:26;;;;;;;5.43;3.23;;;19.40;99.90;;;18.94;100.00;97565.06;5091671;28;20494;-71
2023/08/25 01:02:55;;;;;;;3.67;3.00;;;19.40;99.90;;;19.07;100.00;97569.16;5082833;28;20449;-71
2023/08/25 01:05:23;;;;;;;3.83;2.77;;;19.40;99.90;;;18.97;100.00;97562.56;5090487;28;20585;-71
2023/08/25 01:07:50;;;;;;;4.20;2.70;;;19.40;99.90;;;19.05;100.00;97574.09;5089712;28;20944;-70
2023/08/25 01:10:24;;;;;;;3.60;2.23;;;19.40;99.90;;;19.02;100.00;97560.94;5090914;28;20525;-71
2023/08/25 01:13:02;;;;;;;3.07;2.37;;;19.40;99.90;;;18.96;100.00;97560.94;5086452;28;20844;-71
2023/08/25 01:15:33;;;;;;;5.67;3.13;;;19.40;99.90;;;19.00;100.00;97563.97;5091599;28;20440;-73
2023/08/25 01:18:11;;;;;;;4.77;3.10;;;19.40;99.90;;;18.95;100.00;97562.03;5091876;28;20520;-71
2023/08/25 01:20:41;;;;;;;6.10;3.53;;;19.40;99.90;;;18.96;100.00;97563.69;5090915;28;20933;-71
2023/08/25 01:23:22;;;;;;;3.30;2.50;;;19.30;99.90;;;18.98;100.00;97553.25;5090847;28;20884;-69
2023/08/25 01:25:52;;;;;;;6.47;2.63;;;19.40;99.90;;;18.91;100.00;97558.25;5083146;28;20456;-71
2023/08/25 01:28:21;;;;;;;3.77;3.20;;;19.40;99.90;;;18.83;100.00;97531.44;5091480;28;20448;-70
2023/08/25 01:30:49;;;;;;;4.03;2.80;;;19.40;99.90;;;18.96;100.00;97563.69;5089735;28;20467;-71
2023/08/25 01:33:17;;;;;;;4.90;2.90;;;19.40;99.90;;;18.97;100.00;97559.84;5090770;28;20444;-69
2023/08/25 01:36:01;;;;;;;7.30;2.40;;;19.30;99.90;;;18.86;100.00;97551.97;5089828;28;20438;-70
2023/08/25 01:38:32;;;;;;;4.67;3.20;;;19.30;99.90;;;18.89;100.00;97549.50;5079610;28;20967;-71
2023/08/25 01:41:08;;;;;;;6.27;2.90;;;19.30;99.90;;;18.80;100.00;97551.19;5083485;28;20445;-69
2023/08/25 01:43:40;;;;;;;3.73;2.70;;;19.20;99.90;;;18.79;100.00;97560.47;5099326;28;20521;-71
2023/08/25 01:46:09;;;;;;;5.03;3.40;;;19.20;99.90;;;18.79;100.00;97552.28;5090202;28;20444;-71
2023/08/25 01:48:38;;;;;;;5.17;2.80;;;19.20;99.90;;;18.80;100.00;97553.91;5089066;28;20450;-71
2023/08/25 01:51:06;;;;;;;7.37;3.00;;;19.20;99.90;;;18.76;100.00;97569.25;5090883;28;20463;-71
2023/08/25 01:53:34;;;;;;;2.90;2.70;;;19.20;99.90;;;18.74;100.00;97563.25;5089798;28;20446;-71
2023/08/25 01:56:03;;;;;;;2.90;2.60;;;19.20;99.90;;;18.78;100.00;97570.59;5091104;28;20459;-70
2023/08/25 01:58:30;;;;;;;3.70;3.40;;;19.20;99.90;;;18.75;100.00;97562.16;5090549;28;20461;-69
2023/08/25 02:00:57;;;;;;;3.40;2.93;;;19.20;99.90;;;18.74;100.00;97569.53;5090651;28;20498;-70
2023/08/25 02:03:24;;;;;;;6.80;3.10;;;19.10;99.90;;;18.67;100.00;97561.63;5103520;28;20447;-70
2023/08/25 02:05:51;;;;;;;3.47;3.17;;;19.10;99.90;;;18.72;100.00;97569.00;5089915;28;20465;-71
2023/08/25 02:08:18;;;;;;;5.43;3.30;;;19.10;99.90;;;18.61;100.00;97565.47;5087531;28;20842;-70
2023/08/25 02:10:45;;;;;;;4.57;3.93;;;19.10;99.90;;;18.69;100.00;97556.69;5081271;28;21022;-70
2023/08/25 02:13:15;;;;;;;5.80;3.30;;;19.10;99.90;;;18.63;100.00;97554.25;5090301;28;20466;-69
2023/08/25 02:15:45;;;;;;;4.43;3.30;;;19.10;99.90;;;18.59;100.00;97569.59;5090885;28;20482;-70
2023/08/25 02:18:12;;;;;;;3.23;2.90;;;19.00;99.90;;;18.64;100.00;97575.03;5089273;28;20478;-70
2023/08/25 02:20:40;;;;;;;5.83;3.20;;;19.00;99.90;;;18.64;100.00;97577.75;5088923;28;20459;-70
2023/08/25 02:23:08;;;;;;;5.27;3.33;;;19.00;99.90;;;18.64;100.00;97567.66;5085153;28;20540;-70
2023/08/25 02:25:35;;;;;;;3.60;3.27;;;19.00;99.90;;;18.65;100.00;97574.75;5087844;28;20974;-70
2023/08/25 02:28:03;;;;;;;3.00;2.70;;;19.00;99.90;;;18.64;100.00;97575.88;5089474;28;20570;-70
2023/08/25 02:30:31;;;;;;;5.83;2.90;;;19.00;99.90;;;18.59;100.00;97566.84;5088794;28;20469;-71
2023/08/25 02:33:00;;;;;;;3.97;3.47;;;19.00;99.90;;;18.62;100.00;97569.84;5089788;28;20622;-69
2023/08/25 02:35:27;;;;;;;4.67;3.00;;;19.00;99.90;;;18.55;100.00;97578.34;5090421;28;20451;-70
2023/08/25 02:38:01;;;;;;;4.77;3.00;;;19.00;99.90;;;18.68;100.00;97574.19;5087353;28;20799;-70
2023/08/25 02:40:29;;;;;;;6.77;3.53;;;18.90;99.90;;;18.41;100.00;97553.50;5103723;28;20809;-71
2023/08/25 02:42:58;;;;;;;4.00;3.60;;;18.90;99.90;;;18.58;100.00;97559.75;5097358;28;20446;-71
2023/08/25 02:45:26;;;;;;;3.10;2.80;;;18.90;99.90;;;18.61;100.00;97568.22;5089161;28;20507;-69
2023/08/25 02:47:55;;;;;;;4.50;4.10;;;18.90;99.90;;;18.58;100.00;97560.56;5090697;28;20803;-69
2023/08/25 02:50:23;;;;;;;3.97;3.47;;;18.90;99.90;;;18.45;100.00;97553.75;5090275;28;20505;-69
2023/08/25 02:52:50;;;;;;;7.43;3.43;;;18.90;99.90;;;18.52;100.00;97553.47;5089248;28;20466;-70
2023/08/25 02:55:22;;;;;;;3.40;3.07;;;18.90;99.90;;;18.47;100.00;97545.28;5089477;28;20508;-69
2023/08/25 02:57:51;;;;;;;7.67;3.47;;;18.90;99.90;;;18.38;100.00;97534.91;5090602;28;20459;-69
2023/08/25 03:00:21;;;;;;;3.13;2.83;;;18.80;99.90;;;18.32;100.00;97533.31;5092351;28;20838;-71
2023/08/25 03:02:48;;;;;;;3.70;3.20;;;18.80;99.90;;;18.35;100.00;97538.22;5108037;28;20454;-69
2023/08/25 03:05:18;;;;;;;6.83;3.20;;;18.80;99.90;;;17.98;100.00;97479.25;5088665;28;20975;-69
2023/08/25 03:07:45;;;;;;;3.53;3.23;;;18.80;99.90;;;18.26;100.00;97540.69;5093398;28;20454;-69
2023/08/25 03:10:12;;;;;;;5.07;3.30;;;18.80;99.90;;;18.40;100.00;97535.44;5091969;28;20511;-70
2023/08/25 03:12:40;;;;;;;3.63;3.33;;;18.80;99.90;;;18.37;100.00;97524.28;5090909;28;20445;-71
2023/08/25 03:15:09;;;;;;;5.43;3.70;;;18.70;99.90;;;18.34;100.00;97533.00;5093772;28;20446;-69
2023/08/25 03:17:36;;;;;;;4.90;3.40;;;18.70;99.90;;;18.32;100.00;97536.03;5093809;28;20439;-69
2023/08/25 03:20:04;;;;;;;6.50;3.50;;;18.70;99.90;;;18.25;100.00;97532.75;5093997;28;20801;-69
2023/08/25 03:22:33;;;;;;;4.60;4.20;;;18.70;99.90;;;18.23;100.00;97529.50;5093187;28;20466;-70
2023/08/25 03:25:00;;;;;;;5.50;3.70;;;18.60;99.90;;;18.32;100.00;97529.72;5092448;28;21020;-70
2023/08/25 03:27:28;;;;;;;4.80;3.87;;;18.70;99.90;;;18.31;100.00;97518.00;5093617;28;20446;-70
2023/08/25 03:29:55;;;;;;;4.90;3.90;;;18.70;99.90;;;18.26;100.00;97518.00;5091397;28;20938;-70
2023/08/25 03:32:22;;;;;;;7.93;3.83;;;18.60;99.90;;;18.17;100.00;97523.22;5091444;28;20474;-70
2023/08/25 03:34:50;;;;;;;6.00;4.70;;;18.60;99.90;;;18.20;100.00;97524.59;5088068;28;20456;-70
2023/08/25 03:37:17;;;;;;;4.10;3.40;;;18.60;99.90;;;18.07;100.00;97521.31;5085872;28;20491;-70
2023/08/25 03:39:46;;;;;;;5.03;3.73;;;18.60;99.90;;;18.19;100.00;97536.63;5093452;28;20508;-70
2023/08/25 03:42:13;;;;;;;4.80;3.80;;;18.60;99.90;;;18.16;100.00;97545.38;5092673;28;20931;-70
2023/08/25 03:44:40;;;;;;;5.53;4.17;;;18.60;99.90;;;18.19;100.00;97539.34;5093411;28;20441;-70
2023/08/25 03:47:07;;;;;;;5.17;4.67;;;18.60;99.90;;;18.11;100.00;97541.53;5092357;28;20503;-70
2023/08/25 03:49:35;;;;;;;4.83;3.97;;;18.60;99.90;;;18.11;100.00;97533.34;5093193;28;20446;-70
2023/08/25 03:52:02;;;;;;;4.30;3.60;;;18.60;99.90;;;18.05;100.00;97539.13;5092224;28;20463;-70
2023/08/25 03:54:31;;;;;;;5.13;4.40;;;18.50;99.90;;;18.18;100.00;97532.25;5093492;28;20455;-70
2023/08/25 03:57:00;;;;;;;6.73;4.30;;;18.60;99.90;;;18.12;100.00;97537.75;5090834;28;20451;-70
2023/08/25 03:59:30;;;;;;;5.30;4.00;;;18.60;99.90;;;18.12;100.00;97535.00;5092757;28;20942;-69
2023/08/25 04:01:57;;;;;;;4.77;4.37;;;18.60;99.90;;;18.17;100.00;97533.34;5084076;28;21075;-70
2023/08/25 04:04:25;;;;;;;8.30;4.60;;;18.60;99.90;;;18.24;100.00;97528.38;5088845;28;20498;-70
2023/08/25 04:06:52;;;;;;;4.43;4.03;;;18.60;99.90;;;18.20;100.00;97524.59;5092496;28;20546;-70
2023/08/25 04:09:19;;;;;;;6.97;4.70;;;18.60;99.90;;;18.21;100.00;97529.78;5091170;28;20479;-70
2023/08/25 04:11:46;;;;;;;5.07;4.57;;;18.60;99.90;;;18.29;100.00;97525.66;5090227;28;20475;-69
2023/08/25 04:14:15;;;;;;;6.23;4.30;;;18.70;99.90;;;18.28;100.00;97521.28;5091513;28;20469;-69
2023/08/25 04:16:42;;;;;;;5.23;4.27;;;18.70;99.90;;;18.28;100.00;97513.09;5092784;28;20456;-71
2023/08/25 04:19:09;;;;;;;5.70;4.47;;;18.70;99.90;;;18.31;100.00;97509.78;5093286;28;20480;-69
2023/08/25 04:21:36;;;;;;;6.13;4.60;;;18.70;99.90;;;18.31;100.00;97512.53;5087194;28;20481;-71
2023/08/25 04:24:04;;;;;;;5.33;4.70;;;18.70;99.90;;;18.34;100.00;97520.16;5092688;28;20455;-70
2023/08/25 04:26:31;;;;;;;7.50;5.07;;;18.70;99.90;;;18.35;100.00;97520.97;5089087;28;20521;-71
2023/08/25 04:28:58;;;;;;;5.70;4.97;;;18.80;99.90;;;18.40;100.00;97519.03;5092309;28;20454;-70
2023/08/25 04:31:26;;;;;;;4.63;4.23;;;18.80;99.90;;;18.46;100.00;97528.03;5090028;28;20463;-69
2023/08/25 04:33:54;;;;;;;6.93;5.00;;;18.80;99.90;;;18.43;100.00;97523.13;5092263;28;20681;-69
2023/08/25 04:36:21;;;;;;;5.20;4.63;;;18.90;99.90;;;18.49;100.00;97527.47;5089566;28;20522;-71
2023/08/25 04:38:48;;;;;;;7.90;4.43;;;18.90;99.90;;;18.54;100.00;97523.91;5106677;28;20455;-69
2023/08/25 04:41:15;;;;;;;5.40;4.43;;;19.00;99.90;;;18.64;100.00;97523.88;5091400;28;20533;-70
2023/08/25 04:43:42;;;;;;;5.80;4.37;;;19.10;99.90;;;18.64;100.00;97512.09;5090144;28;20528;-69
2023/08/25 04:46:12;;;;;;;6.73;4.63;;;19.10;99.90;;;18.59;100.00;97518.44;5080726;28;20464;-70
2023/08/25 04:48:45;;;;;;;6.03;4.37;;;19.10;99.90;;;18.65;100.00;97519.22;5090518;28;20443;-69
2023/08/25 04:51:13;;;;;;;5.07;4.43;;;19.10;99.90;;;18.68;100.00;97519.47;5090837;28;20557;-70
2023/08/25 04:53:40;;;;;;;6.70;4.90;;;19.10;99.90;;;18.67;100.00;97512.38;5091829;28;20519;-70
2023/08/25 04:56:07;;;;;;;7.93;4.40;;;19.10;99.90;;;18.71;100.00;97506.34;5080562;28;20957;-70
2023/08/25 04:58:35;;;;;;;6.40;4.17;;;19.20;99.90;;;18.90;100.00;97515.56;5093665;28;20466;-70
2023/08/25 05:01:03;;;;;;;4.80;4.40;;;19.30;99.90;;;19.03;100.00;97507.81;5084383;28;20458;-70
2023/08/25 05:03:31;;;;;;;6.33;4.50;;;19.50;99.90;;;19.26;99.61;97500.84;5091348;28;20859;-71
2023/08/25 05:05:59;;;;;;;5.37;3.90;;;19.70;99.90;;;19.49;97.20;97496.56;5088731;28;20520;-69
2023/08/25 05:08:27;;;;;;;8.27;4.93;;;19.90;98.40;;;19.56;96.54;97492.66;5093591;28;21042;-71
2023/08/25 05:10:54;;;;;;;4.80;4.37;;;20.10;97.50;;;19.61;95.64;97495.34;5089182;28;20475;-70
2023/08/25 05:13:21;;;;;;;4.60;4.03;;;20.20;96.70;;;19.68;95.54;97491.19;5090798;28;20448;-70
2023/08/25 05:15:48;;;;;;;5.33;3.97;;;20.20;96.80;;;19.85;94.65;97500.88;5090262;28;20498;-69
2023/08/25 05:18:15;;;;;;;6.33;4.10;;;20.20;96.90;;;19.85;93.59;97495.41;5091781;28;20466;-71
2023/08/25 05:20:43;;;;;;;6.73;4.30;;;20.30;96.20;;;20.01;92.35;97485.16;5090185;28;20450;-70
2023/08/25 05:23:11;;;;;;;4.10;3.70;;;20.50;95.70;;;20.18;91.27;97481.94;5089700;28;20468;-70
2023/08/25 05:25:39;;;;;;;4.97;4.17;;;20.60;95.30;;;20.42;89.17;97474.81;5091435;28;20924;-69
2023/08/25 05:28:06;;;;;;;5.40;4.13;;;21.00;94.20;;;20.49;88.43;97464.28;5089158;28;20441;-70
2023/08/25 05:30:34;;;;;;;6.53;4.17;;;21.10;93.60;;;20.93;85.98;97474.16;5089971;28;20869;-69
2023/08/25 05:33:01;;;;;;;7.10;4.43;;;21.50;93.20;;;21.22;84.69;97475.94;5084910;28;20471;-70
2023/08/25 05:35:28;;;;;;;4.97;4.30;;;21.80;92.70;;;21.03;83.76;97477.88;5086804;28;20446;-70
2023/08/25 05:37:56;;;;;;;7.30;4.50;;;21.80;92.20;;;20.93;84.75;97474.16;5085499;28;20482;-70
2023/08/25 05:40:24;;;;;;;4.13;3.70;;;21.60;92.40;;;20.98;85.08;97480.69;5089750;28;20477;-71
2023/08/25 05:42:51;;;;;;;7.47;4.47;;;21.60;92.50;;;21.21;83.78;97485.28;5083329;28;20517;-71
2023/08/25 05:45:18;;;;;;;4.43;3.80;;;21.80;92.30;;;21.39;82.13;97479.25;5089885;28;20508;-70
2023/08/25 05:47:45;;;;;;;6.23;3.53;;;22.10;91.70;;;21.46;81.53;97485.16;5091077;28;20452;-70
2023/08/25 05:50:13;;;;;;;7.03;4.10;;;22.10;91.60;;;20.97;83.78;97479.03;5089518;28;20446;-70
2023/08/25 05:52:41;;;;;;;5.30;3.63;;;21.80;91.80;;;20.91;84.38;97487.38;5089448;28;20473;-71
2023/08/25 05:55:11;;;;;;;6.97;3.53;;;21.50;92.20;;;20.86;85.11;97478.38;5089710;28;20478;-71
2023/08/25 05:57:40;;;;;;;6.23;4.30;;;21.40;92.40;;;20.83;85.99;97474.28;5091010;28;20538;-70
2023/08/25 06:00:09;;;;;;;5.20;4.03;;;21.30;92.80;;;20.83;85.82;97471.56;5093288;28;20795;-71
2023/08/25 06:02:36;;;;;;;7.83;3.77;;;21.30;92.80;;;20.79;85.35;97451.28;5087423;28;20493;-71
2023/08/25 06:05:04;;;;;;;5.20;4.10;;;21.30;92.80;;;20.78;84.90;97453.22;5090852;28;20524;-70
2023/08/25 06:07:31;;;;;;;5.77;4.07;;;21.30;92.80;;;20.79;85.17;97462.25;5089256;28;20564;-70
2023/08/25 06:09:58;;;;;;;6.93;3.67;;;21.20;92.70;;;21.02;84.40;97459.78;5081919;28;20467;-70
2023/08/25 06:12:26;;;;;;;7.17;4.40;;;21.40;92.80;;;21.00;84.39;97467.47;5085374;28;20478;-71
2023/08/25 06:14:54;;;;;;;6.10;3.80;;;21.40;92.70;;;21.23;83.30;97466.56;5088197;28;20443;-71
2023/08/25 06:17:21;;;;;;;4.07;3.57;;;21.60;92.50;;;21.25;83.10;97469.03;5084635;28;20447;-70
2023/08/25 06:19:49;;;;;;;4.17;3.77;;;21.70;92.40;;;21.17;82.22;97472.44;5089332;28;20454;-70
2023/08/25 06:22:16;;;;;;;4.57;3.63;;;21.70;92.00;;;21.01;83.24;97458.16;5089066;28;20936;-70
2023/08/25 06:24:43;;;;;;;4.60;4.20;;;21.50;92.10;;;21.16;82.49;97455.16;5087917;28;20440;-71
2023/08/25 06:27:10;;;;;;;6.60;3.90;;;21.60;92.10;;;21.19;82.48;97454.56;5090671;28;20977;-71
2023/08/25 06:29:37;;;;;;;5.60;4.03;;;21.60;92.30;;;21.27;81.96;97444.00;5089198;28;20833;-71
2023/08/25 06:32:07;;;;;;;5.07;4.60;;;21.70;92.10;;;21.58;80.44;97457.22;5086747;28;20525;-70
2023/08/25 06:34:34;;;;;;;6.00;3.80;;;21.90;91.90;;;21.32;80.79;97417.25;5073207;28;20467;-70
2023/08/25 06:37:01;;;;;;;6.07;4.50;;;22.00;91.90;;;21.65;80.52;97457.66;5088322;28;20946;-70
2023/08/25 06:39:29;;;;;;;5.70;3.90;;;22.10;91.80;;;21.65;79.44;97450.22;5089320;28;20482;-72
2023/08/25 06:41:56;;;;;;;6.23;3.50;;;22.20;91.50;;;22.05;78.47;97463.53;5089902;28;20971;-70
2023/08/25 06:44:23;;;;;;;3.53;3.23;;;22.30;91.50;;;22.10;77.79;97473.63;5090424;28;20500;-70
2023/08/25 06:46:50;;;;;;;6.07;3.90;;;22.50;91.30;;;22.22;77.22;97462.13;5094569;28;20435;-71
2023/08/25 06:49:19;;;;;;;4.93;4.17;;;22.50;91.10;;;21.96;76.99;97399.38;5078436;28;20463;-70
2023/08/25 06:51:46;;;;;;;5.83;3.60;;;22.70;91.20;;;22.56;75.51;97466.41;5080729;28;20482;-70
2023/08/25 06:54:13;;;;;;;5.80;3.53;;;22.90;90.90;;;22.69;74.78;97469.47;5088420;28;20448;-70
2023/08/25 06:56:40;;;;;;;4.50;3.83;;;23.00;90.70;;;22.99;73.78;97469.91;5080702;28;20453;-70
2023/08/25 06:59:08;;;;;;;4.00;3.33;;;23.20;90.60;;;23.12;72.59;97466.25;5088923;28;20521;-70
2023/08/25 07:01:35;;;;;;;9.60;3.37;;;23.40;90.30;;;23.00;72.38;97466.03;5089010;28;20474;-70
2023/08/25 07:04:02;;;;;;;8.20;4.00;;;23.30;90.10;;;23.11;71.90;97470.13;5089610;28;20821;-70
2023/08/25 07:06:30;;;;;;;7.33;3.93;;;23.50;90.00;;;23.26;71.37;97470.91;5086257;28;20460;-70
2023/08/25 07:08:58;;;;;;;6.37;4.07;;;23.50;89.60;;;23.57;69.33;97459.16;5071220;28;20507;-71
2023/08/25 07:11:26;;;;;;;6.07;3.23;;;23.70;89.10;;;23.97;68.08;97464.72;5077396;28;20444;-71
2023/08/25 07:13:53;;;;;;;9.37;3.70;;;24.00;88.60;;;24.48;66.44;97456.16;5091855;28;20551;-71
2023/08/25 07:16:21;;;;;;;4.80;3.37;;;24.50;88.00;;;24.51;65.23;97463.81;5088832;28;20441;-71
2023/08/25 07:18:48;;;;;;;3.70;2.97;;;24.80;86.80;;;24.96;63.25;97457.25;5090348;28;20445;-71
2023/08/25 07:21:15;;;;;;;4.10;3.60;;;25.00;86.10;;;25.00;62.57;97458.22;5083597;28;20456;-70
2023/08/25 07:23:43;;;;;;;4.00;3.00;;;25.20;85.30;;;25.39;61.53;97458.38;5088862;28;20942;-69
2023/08/25 07:26:10;;;;;;;5.43;2.97;;;25.50;84.50;;;25.29;60.71;97464.25;5090296;28;20446;-70
2023/08/25 07:28:38;;;;;;;5.87;3.33;;;25.50;84.00;;;25.50;60.23;97480.19;5088787;28;20777;-72
2023/08/25 07:31:05;;;;;;;7.87;3.40;;;25.50;83.20;;;25.50;60.36;97488.47;5089802;28;20460;-72
2023/08/25 07:33:32;;;;;;;3.47;3.17;;;25.60;83.30;;;25.29;59.21;97497.41;5083023;28;20478;-71
2023/08/25 07:36:00;;;;;;;3.63;3.33;;;25.50;82.10;;;25.17;59.74;97512.69;5080477;28;20542;-70
2023/08/25 07:38:27;;;;;;;4.77;3.30;;;25.40;81.70;;;25.31;59.87;97537.41;5088435;28;20487;-69
2023/08/25 07:40:57;;;;;;;3.50;3.20;;;25.30;82.30;;;25.68;58.43;97545.38;5089679;28;20471;-72
2023/08/25 07:43:24;;;;;;;3.33;3.00;;;25.70;81.60;;;25.63;58.98;97559.41;5088785;28;20460;-71
2023/08/25 07:45:53;;;;;;;3.50;2.73;;;25.70;81.60;;;25.71;59.06;97561.34;5085111;28;20445;-71
2023/08/25 07:48:20;;;;;;;6.50;3.20;;;25.80;81.60;;;25.75;58.35;97564.25;5093068;28;20465;-69
2023/08/25 07:50:48;;;;;;;5.47;3.10;;;25.80;81.30;;;25.77;58.69;97575.00;5103653;28;20508;-70
2023/08/25 07:53:15;;;;;;;4.70;3.37;;;25.70;81.40;;;25.34;59.48;97571.88;5084698;28;20472;-70
2023/08/25 07:55:43;;;;;;;4.03;2.80;;;25.50;81.50;;;25.39;59.43;97568.94;5090670;28;20498;-70
2023/08/25 07:58:12;;;;;;;5.00;3.23;;;25.50;81.50;;;25.37;59.32;97571.22;5100429;28;20448;-69
2023/08/25 08:00:39;;;;;;;3.50;3.20;;;25.50;81.50;;;24.90;60.91;97603.00;5091755;28;20514;-71
2023/08/25 08:03:08;;;;;;;7.07;3.70;;;25.30;81.70;;;24.74;61.86;97615.59;5097207;28;20472;-69
2023/08/25 08:05:35;;;;;;;4.03;3.00;;;24.90;82.50;;;24.37;63.06;97621.28;5105701;28;20481;-71
2023/08/25 08:08:03;;;;;;;4.07;3.40;;;24.60;82.80;;;24.29;63.95;97611.81;5092761;28;20773;-70
2023/08/25 08:10:30;;;;;;;8.80;4.17;;;24.40;83.50;;;23.98;68.02;97629.09;5092943;28;20521;-70
2023/08/25 08:12:58;;;;;;;5.37;4.00;;;24.10;85.80;;;23.29;73.70;97630.16;5089958;28;20475;-70
2023/08/25 08:15:27;;;;;;;3.97;3.40;;;23.60;88.50;;;22.59;72.80;97644.72;5092655;28;20451;-71
2023/08/25 08:17:54;;;;;;;3.50;3.20;;;23.00;87.60;;;22.38;74.86;97646.19;5077554;28;20445;-70
2023/08/25 08:20:21;;;;;;;4.00;3.70;;;22.60;89.30;;;22.24;75.71;97624.94;5092691;28;20455;-70
2023/08/25 08:22:49;;;;;;;4.43;3.17;;;22.40;89.60;;;22.01;74.46;97633.00;5091540;28;20464;-70
2023/08/25 08:25:16;;;;;;;4.50;4.10;;;22.30;89.10;;;21.82;75.49;97624.00;5092707;28;20476;-70
2023/08/25 08:27:43;;;;;;;4.23;2.90;;;22.10;89.30;;;21.87;76.41;97643.97;5083198;28;20510;-70
2023/08/25 08:30:13;;;;;;;4.90;3.27;;;22.00;90.10;;;21.47;77.55;97663.50;5091064;28;20454;-70
2023/08/25 08:32:41;;;;;;;6.27;3.40;;;21.80;90.20;;;21.09;81.77;97646.94;5091547;28;20470;-71
2023/08/25 08:35:09;;;;;;;7.30;3.77;;;21.40;91.00;;;20.41;88.32;97654.25;5100065;28;20444;-70
2023/08/25 08:37:37;;;;;;;5.77;4.17;;;20.90;93.10;;;20.06;92.47;97649.59;5092635;28;20539;-69
2023/08/25 08:40:06;;;;;;;6.03;3.87;;;20.50;96.00;;;19.86;93.44;97645.03;5080482;28;20456;-69
2023/08/25 08:42:36;;;;;;;5.87;4.10;;;20.20;96.80;;;19.82;94.54;97650.31;5071620;28;20454;-69
2023/08/25 08:45:07;;;;;;;8.23;4.30;;;20.10;98.40;;;19.65;95.28;97652.63;5098922;28;20808;-70
2023/08/25 08:47:35;;;;;;;5.33;4.67;;;20.00;99.00;;;19.72;96.52;97644.09;5100848;28;20447;-69
2023/08/25 08:50:07;;;;;;;5.87;5.10;;;19.90;99.60;;;19.66;97.13;97649.56;5092536;28;20502;-69
2023/08/25 08:52:34;;;;;;;6.13;5.53;;;19.90;99.90;;;19.69;98.58;97650.94;5088162;28;20472;-69
2023/08/25 08:55:04;;;;;;;6.20;5.53;;;19.90;99.90;;;19.90;97.56;97672.72;5090912;28;20513;-70
2023/08/25 08:57:32;;;;;;;7.57;5.30;;;20.00;99.90;;;20.13;95.90;97668.44;5092024;28;20496;-71
2023/08/25 08:59:59;;;;;;;6.00;5.30;;;20.10;99.90;;;19.96;97.07;97649.69;5079037;28;20446;-71
2023/08/25 09:02:29;;;;;;;6.90;5.13;;;20.20;99.90;;;19.82;95.44;97609.19;5083478;28;20457;-70
2023/08/25 09:04:59;;;;;;;6.60;5.47;;;20.40;99.90;;;20.16;95.12;97664.31;5102586;28;20453;-71
2023/08/25 09:07:32;;;;;;;5.40;4.90;;;20.50;98.70;;;20.38;96.19;97661.91;5091176;28;20527;-70
2023/08/25 09:09:59;;;;;;;7.67;5.23;;;20.60;99.40;;;20.47;95.72;97647.59;5089498;28;20443;-70
2023/08/25 09:12:29;;;;;;;8.33;5.30;;;20.80;99.10;;;20.79;94.78;97643.41;5090963;28;20476;-68
2023/08/25 09:14:56;;;;;;;7.27;4.80;;;21.00;98.70;;;21.11;90.35;97627.44;5091965;28;20444;-71
2023/08/25 09:17:23;;;;;;;8.27;4.80;;;21.20;96.50;;;21.06;90.20;97628.31;5092002;28;20451;-70
2023/08/25 09:19:50;;;;;;;5.30;4.80;;;21.30;96.10;;;21.12;89.96;97640.84;5091752;28;20478;-71
2023/08/25 09:22:19;;;;;;;5.80;5.27;;;21.40;95.60;;;20.91;95.12;97643.84;5090567;28;20506;-69
2023/08/25 09:24:47;;;;;;;6.70;5.40;;;21.30;97.70;;;21.06;93.61;97642.84;5090387;28;20451;-69
2023/08/25 09:27:25;;;;;;;7.23;5.30;;;21.40;97.40;;;21.39;92.18;97633.91;5088466;28;20446;-70
2023/08/25 09:29:59;;;;;;;5.60;4.97;;;21.60;97.00;;;21.53;89.76;97612.00;5081328;28;20488;-68
2023/08/25 09:32:28;;;;;;;5.00;4.60;;;21.80;96.00;;;21.81;87.41;97603.13;5090470;28;20445;-69
2023/08/25 09:34:56;;;;;;;7.13;5.40;;;22.00;94.70;;;21.87;86.38;97593.66;5089892;28;20879;-70
2023/08/25 09:37:23;;;;;;;6.27;4.77;;;22.20;94.00;;;22.18;85.34;97596.72;5091021;28;20450;-71
2023/08/25 09:39:52;;;;;;;6.57;4.37;;;22.40;93.80;;;22.46;82.87;97609.69;5090534;28;20450;-71
2023/08/25 09:42:23;;;;;;;8.60;4.70;;;22.70;93.30;;;22.64;82.92;97606.06;5084997;28;20487;-69
2023/08/25 09:44:50;;;;;;;5.43;4.30;;;22.90;93.10;;;22.78;80.25;97619.03;5088102;28;20512;-70
2023/08/25 09:47:17;;;;;;;5.03;4.63;;;23.10;92.40;;;22.65;79.86;97623.41;5091067;28;20447;-69
2023/08/25 09:49:45;;;;;;;8.13;4.40;;;23.10;92.00;;;22.64;78.59;97628.09;5083919;28;20510;-70
2023/08/25 09:52:16;;;;;;;5.93;4.20;;;23.20;91.60;;;22.69;81.09;97651.16;5087702;28;20818;-70
2023/08/25 09:54:44;;;;;;;5.67;3.93;;;23.10;92.00;;;22.47;79.23;97645.22;5090931;28;20555;-71
2023/08/25 09:57:13;;;;;;;10.00;4.20;;;23.10;91.70;;;22.51;78.12;97645.41;5090796;28;20996;-71
2023/08/25 09:59:40;;;;;;;7.80;4.67;;;22.90;91.30;;;22.69;78.41;97627.19;5086599;28;20604;-71
2023/08/25 10:02:11;;;;;;;6.80;4.80;;;23.00;91.50;;;23.03;78.70;97622.41;5089843;28;20487;-71
2023/08/25 10:04:41;;;;;;;6.00;4.70;;;23.10;91.80;;;23.19;76.27;97614.59;5090726;28;20448;-71
2023/08/25 10:07:09;;;;;;;4.43;4.03;;;23.30;91.40;;;23.38;76.51;97611.75;5090770;28;20471;-70
2023/08/25 10:09:36;;;;;;;4.33;3.90;;;23.40;91.60;;;22.95;76.89;97609.31;5090034;28;20443;-71
2023/08/25 10:12:07;;;;;;;4.67;4.27;;;23.30;91.20;;;22.98;78.08;97619.75;5088675;28;20457;-71
2023/08/25 10:14:40;;;;;;;4.67;4.37;;;23.20;91.50;;;22.87;78.39;97633.72;5088084;28;20474;-70
2023/08/25 10:17:10;;;;;;;6.20;4.70;;;23.10;91.60;;;23.01;79.34;97630.94;5088558;28;20504;-70
2023/08/25 10:19:39;;;;;;;4.93;4.27;;;23.10;91.90;;;22.73;80.75;97605.38;5089664;28;20853;-71